sensor_id;sensor_type;location;lat;lon;timestamp;temperature;humidity
50955;DHT22;36966;48.064;-0.792;2023-02-11T00:02:10;17.50;43.40
50955;DHT22;36966;48.064;-0.792;2023-02-11T00:04:29;17.40;43.40
50955;DHT22;36966;48.064;-0.792;2023-02-11T00:06:49;17.40;43.40
50955;DHT22;36966;48.064;-0.792;2023-02-11T00:09:09;17.40;43.30
50955;DHT22;36966;48.064;-0.792;2023-02-11T00:11:29;17.40;43.30
50955;DHT22;36966;48.064;-0.792;2023-02-11T00:13:48;17.40;43.30
50955;DHT22;36966;48.064;-0.792;2023-02-11T00:16:13;17.30;43.30
50955;DHT22;36966;48.064;-0.792;2023-02-11T00:18:33;17.30;43.20
50955;DHT22;36966;48.064;-0.792;2023-02-11T00:20:52;17.30;43.10
50955;DHT22;36966;48.064;-0.792;2023-02-11T00:23:11;17.30;43.10
50955;DHT22;36966;48.064;-0.792;2023-02-11T00:25:31;17.30;43.00
50955;DHT22;36966;48.064;-0.792;2023-02-11T00:27:50;17.30;43.00
50955;DHT22;36966;48.064;-0.792;2023-02-11T00:30:10;17.30;42.90
50955;DHT22;36966;48.064;-0.792;2023-02-11T00:32:30;17.30;42.90
50955;DHT22;36966;48.064;-0.792;2023-02-11T00:34:51;17.20;42.90
50955;DHT22;36966;48.064;-0.792;2023-02-11T00:37:11;17.20;42.80
50955;DHT22;36966;48.064;-0.792;2023-02-11T00:39:31;17.20;42.90
50955;DHT22;36966;48.064;-0.792;2023-02-11T00:41:50;17.20;42.80
50955;DHT22;36966;48.064;-0.792;2023-02-11T00:44:10;17.20;42.70
50955;DHT22;36966;48.064;-0.792;2023-02-11T00:46:29;17.20;42.70
50955;DHT22;36966;48.064;-0.792;2023-02-11T00:48:49;17.20;42.60
50955;DHT22;36966;48.064;-0.792;2023-02-11T00:51:09;17.20;42.60
50955;DHT22;36966;48.064;-0.792;2023-02-11T00:53:30;17.20;42.50
50955;DHT22;36966;48.064;-0.792;2023-02-11T00:55:50;17.20;42.60
50955;DHT22;36966;48.064;-0.792;2023-02-11T00:58:09;17.20;42.50
50955;DHT22;36966;48.064;-0.792;2023-02-11T01:00:28;17.20;42.40
50955;DHT22;36966;48.064;-0.792;2023-02-11T01:02:48;17.20;42.40
50955;DHT22;36966;48.064;-0.792;2023-02-11T01:05:07;17.10;42.30
50955;DHT22;36966;48.064;-0.792;2023-02-11T01:07:27;17.20;42.40
50955;DHT22;36966;48.064;-0.792;2023-02-11T01:09:47;17.10;42.30
50955;DHT22;36966;48.064;-0.792;2023-02-11T01:12:06;17.10;42.30
50955;DHT22;36966;48.064;-0.792;2023-02-11T01:14:25;17.10;42.30
50955;DHT22;36966;48.064;-0.792;2023-02-11T01:16:45;17.10;42.30
50955;DHT22;36966;48.064;-0.792;2023-02-11T01:19:04;17.10;42.30
50955;DHT22;36966;48.064;-0.792;2023-02-11T01:21:23;17.10;42.30
50955;DHT22;36966;48.064;-0.792;2023-02-11T01:23:43;17.10;42.30
50955;DHT22;36966;48.064;-0.792;2023-02-11T01:26:02;17.00;42.30
50955;DHT22;36966;48.064;-0.792;2023-02-11T01:28:25;17.10;42.50
50955;DHT22;36966;48.064;-0.792;2023-02-11T01:30:44;17.10;42.40
50955;DHT22;36966;48.064;-0.792;2023-02-11T01:33:04;17.00;42.30
50955;DHT22;36966;48.064;-0.792;2023-02-11T01:35:23;17.00;42.30
50955;DHT22;36966;48.064;-0.792;2023-02-11T01:37:42;17.00;42.30
50955;DHT22;36966;48.064;-0.792;2023-02-11T01:40:02;17.00;42.50
50955;DHT22;36966;48.064;-0.792;2023-02-11T01:42:23;17.00;42.40
50955;DHT22;36966;48.064;-0.792;2023-02-11T01:44:42;17.00;42.40
50955;DHT22;36966;48.064;-0.792;2023-02-11T01:47:02;17.00;42.40
50955;DHT22;36966;48.064;-0.792;2023-02-11T01:49:27;17.00;42.40
50955;DHT22;36966;48.064;-0.792;2023-02-11T01:51:50;17.00;42.40
50955;DHT22;36966;48.064;-0.792;2023-02-11T01:54:16;17.00;42.50
50955;DHT22;36966;48.064;-0.792;2023-02-11T01:56:57;17.00;42.50
50955;DHT22;36966;48.064;-0.792;2023-02-11T02:02:51;17.00;42.50
50955;DHT22;36966;48.064;-0.792;2023-02-11T02:05:38;17.00;42.50
50955;DHT22;36966;48.064;-0.792;2023-02-11T02:10:26;16.90;42.50
50955;DHT22;36966;48.064;-0.792;2023-02-11T02:12:46;16.90;42.40
50955;DHT22;36966;48.064;-0.792;2023-02-11T02:15:32;16.90;42.40
50955;DHT22;36966;48.064;-0.792;2023-02-11T02:26:33;16.90;42.30
50955;DHT22;36966;48.064;-0.792;2023-02-11T02:30:02;16.90;42.40
50955;DHT22;36966;48.064;-0.792;2023-02-11T02:34:49;16.90;42.30
50955;DHT22;36966;48.064;-0.792;2023-02-11T02:37:18;16.90;42.20
50955;DHT22;36966;48.064;-0.792;2023-02-11T02:39:38;16.90;42.20
50955;DHT22;36966;48.064;-0.792;2023-02-11T02:41:58;16.90;42.20
50955;DHT22;36966;48.064;-0.792;2023-02-11T02:44:19;16.80;42.10
50955;DHT22;36966;48.064;-0.792;2023-02-11T02:46:38;16.80;42.10
50955;DHT22;36966;48.064;-0.792;2023-02-11T02:48:58;16.80;42.10
50955;DHT22;36966;48.064;-0.792;2023-02-11T03:01:25;16.80;42.00
50955;DHT22;36966;48.064;-0.792;2023-02-11T03:03:55;16.80;42.00
50955;DHT22;36966;48.064;-0.792;2023-02-11T03:06:25;16.80;41.90
50955;DHT22;36966;48.064;-0.792;2023-02-11T03:08:54;16.80;41.90
50955;DHT22;36966;48.064;-0.792;2023-02-11T03:11:17;16.80;41.90
50955;DHT22;36966;48.064;-0.792;2023-02-11T03:13:38;16.80;41.80
50955;DHT22;36966;48.064;-0.792;2023-02-11T03:16:05;16.80;41.90
50955;DHT22;36966;48.064;-0.792;2023-02-11T03:18:27;16.70;41.80
50955;DHT22;36966;48.064;-0.792;2023-02-11T03:20:50;16.70;41.80
50955;DHT22;36966;48.064;-0.792;2023-02-11T03:23:31;16.70;41.80
50955;DHT22;36966;48.064;-0.792;2023-02-11T03:25:58;16.70;41.90
50955;DHT22;36966;48.064;-0.792;2023-02-11T03:28:32;16.70;41.90
50955;DHT22;36966;48.064;-0.792;2023-02-11T03:31:12;16.70;41.90
50955;DHT22;36966;48.064;-0.792;2023-02-11T03:36:18;16.70;41.90
50955;DHT22;36966;48.064;-0.792;2023-02-11T03:38:44;16.70;41.90
50955;DHT22;36966;48.064;-0.792;2023-02-11T03:41:05;16.70;41.90
50955;DHT22;36966;48.064;-0.792;2023-02-11T03:43:31;16.70;41.90
50955;DHT22;36966;48.064;-0.792;2023-02-11T03:45:53;16.70;41.90
50955;DHT22;36966;48.064;-0.792;2023-02-11T03:48:25;16.70;41.90
50955;DHT22;36966;48.064;-0.792;2023-02-11T03:50:47;16.70;42.00
50955;DHT22;36966;48.064;-0.792;2023-02-11T03:53:07;16.70;41.90
50955;DHT22;36966;48.064;-0.792;2023-02-11T03:55:27;16.70;42.00
50955;DHT22;36966;48.064;-0.792;2023-02-11T03:57:48;16.70;42.00
50955;DHT22;36966;48.064;-0.792;2023-02-11T04:00:08;16.70;42.00
50955;DHT22;36966;48.064;-0.792;2023-02-11T04:02:30;16.70;42.00
50955;DHT22;36966;48.064;-0.792;2023-02-11T04:04:49;16.70;42.00
50955;DHT22;36966;48.064;-0.792;2023-02-11T04:07:11;16.70;42.00
50955;DHT22;36966;48.064;-0.792;2023-02-11T04:09:30;16.70;42.00
50955;DHT22;36966;48.064;-0.792;2023-02-11T04:11:49;16.70;42.00
50955;DHT22;36966;48.064;-0.792;2023-02-11T04:14:08;16.70;42.00
50955;DHT22;36966;48.064;-0.792;2023-02-11T04:16:28;16.70;42.00
50955;DHT22;36966;48.064;-0.792;2023-02-11T04:18:48;16.70;42.10
50955;DHT22;36966;48.064;-0.792;2023-02-11T04:21:08;16.70;42.10
50955;DHT22;36966;48.064;-0.792;2023-02-11T04:23:27;16.70;42.10
50955;DHT22;36966;48.064;-0.792;2023-02-11T04:25:48;16.70;42.10
50955;DHT22;36966;48.064;-0.792;2023-02-11T04:28:08;16.60;42.10
50955;DHT22;36966;48.064;-0.792;2023-02-11T04:30:27;16.70;42.10
50955;DHT22;36966;48.064;-0.792;2023-02-11T04:32:46;16.70;42.10
50955;DHT22;36966;48.064;-0.792;2023-02-11T04:35:05;16.70;42.10
50955;DHT22;36966;48.064;-0.792;2023-02-11T04:37:25;16.60;42.10
50955;DHT22;36966;48.064;-0.792;2023-02-11T04:39:44;16.60;42.10
50955;DHT22;36966;48.064;-0.792;2023-02-11T04:42:03;16.60;42.10
50955;DHT22;36966;48.064;-0.792;2023-02-11T04:44:22;16.60;42.10
50955;DHT22;36966;48.064;-0.792;2023-02-11T04:46:41;16.60;42.10
50955;DHT22;36966;48.064;-0.792;2023-02-11T04:49:01;16.60;42.10
50955;DHT22;36966;48.064;-0.792;2023-02-11T04:51:20;16.60;42.10
50955;DHT22;36966;48.064;-0.792;2023-02-11T04:53:40;16.60;42.10
50955;DHT22;36966;48.064;-0.792;2023-02-11T04:55:59;16.60;42.10
50955;DHT22;36966;48.064;-0.792;2023-02-11T04:58:18;16.60;42.10
50955;DHT22;36966;48.064;-0.792;2023-02-11T05:00:38;16.60;42.50
50955;DHT22;36966;48.064;-0.792;2023-02-11T05:02:57;16.60;43.70
50955;DHT22;36966;48.064;-0.792;2023-02-11T05:05:16;16.60;43.30
50955;DHT22;36966;48.064;-0.792;2023-02-11T05:07:35;16.60;42.90
50955;DHT22;36966;48.064;-0.792;2023-02-11T05:09:55;16.60;42.70
50955;DHT22;36966;48.064;-0.792;2023-02-11T05:12:14;16.60;42.50
50955;DHT22;36966;48.064;-0.792;2023-02-11T05:14:33;16.60;42.40
50955;DHT22;36966;48.064;-0.792;2023-02-11T05:16:52;16.60;42.30
50955;DHT22;36966;48.064;-0.792;2023-02-11T05:19:11;16.60;42.30
50955;DHT22;36966;48.064;-0.792;2023-02-11T05:21:31;16.70;42.20
50955;DHT22;36966;48.064;-0.792;2023-02-11T05:23:50;16.70;42.20
50955;DHT22;36966;48.064;-0.792;2023-02-11T05:26:10;16.70;42.20
50955;DHT22;36966;48.064;-0.792;2023-02-11T05:28:30;16.60;42.10
50955;DHT22;36966;48.064;-0.792;2023-02-11T05:30:49;16.70;42.10
50955;DHT22;36966;48.064;-0.792;2023-02-11T05:33:09;16.70;42.00
50955;DHT22;36966;48.064;-0.792;2023-02-11T05:35:28;16.70;42.00
50955;DHT22;36966;48.064;-0.792;2023-02-11T05:37:47;16.70;42.00
50955;DHT22;36966;48.064;-0.792;2023-02-11T05:40:06;16.70;41.90
50955;DHT22;36966;48.064;-0.792;2023-02-11T05:42:25;16.70;41.90
50955;DHT22;36966;48.064;-0.792;2023-02-11T05:44:44;16.70;41.90
50955;DHT22;36966;48.064;-0.792;2023-02-11T05:47:04;16.70;41.90
50955;DHT22;36966;48.064;-0.792;2023-02-11T05:49:23;16.70;41.80
50955;DHT22;36966;48.064;-0.792;2023-02-11T05:51:42;16.70;41.70
50955;DHT22;36966;48.064;-0.792;2023-02-11T05:54:02;16.70;41.70
50955;DHT22;36966;48.064;-0.792;2023-02-11T05:56:21;16.70;41.70
50955;DHT22;36966;48.064;-0.792;2023-02-11T05:58:40;16.70;41.60
50955;DHT22;36966;48.064;-0.792;2023-02-11T06:00:59;16.70;41.60
50955;DHT22;36966;48.064;-0.792;2023-02-11T06:03:19;16.70;41.60
50955;DHT22;36966;48.064;-0.792;2023-02-11T06:05:38;16.70;41.60
50955;DHT22;36966;48.064;-0.792;2023-02-11T06:07:57;16.80;41.50
50955;DHT22;36966;48.064;-0.792;2023-02-11T06:10:16;16.70;41.50
50955;DHT22;36966;48.064;-0.792;2023-02-11T06:12:37;16.70;41.50
50955;DHT22;36966;48.064;-0.792;2023-02-11T06:14:56;16.70;41.60
50955;DHT22;36966;48.064;-0.792;2023-02-11T06:17:15;16.80;41.50
50955;DHT22;36966;48.064;-0.792;2023-02-11T06:19:35;16.80;41.40
50955;DHT22;36966;48.064;-0.792;2023-02-11T06:21:55;16.80;41.50
50955;DHT22;36966;48.064;-0.792;2023-02-11T06:24:14;16.80;41.40
50955;DHT22;36966;48.064;-0.792;2023-02-11T06:26:34;16.80;41.50
50955;DHT22;36966;48.064;-0.792;2023-02-11T06:28:53;16.80;41.40
50955;DHT22;36966;48.064;-0.792;2023-02-11T06:31:12;16.80;41.40
50955;DHT22;36966;48.064;-0.792;2023-02-11T06:33:32;16.90;41.40
50955;DHT22;36966;48.064;-0.792;2023-02-11T06:35:52;16.80;41.30
50955;DHT22;36966;48.064;-0.792;2023-02-11T06:38:11;16.80;41.40
50955;DHT22;36966;48.064;-0.792;2023-02-11T06:40:30;16.80;41.30
50955;DHT22;36966;48.064;-0.792;2023-02-11T06:42:49;16.80;41.30
50955;DHT22;36966;48.064;-0.792;2023-02-11T06:45:08;16.90;41.30
50955;DHT22;36966;48.064;-0.792;2023-02-11T06:47:28;16.80;41.30
50955;DHT22;36966;48.064;-0.792;2023-02-11T06:49:47;16.80;41.20
50955;DHT22;36966;48.064;-0.792;2023-02-11T06:52:07;16.80;41.20
50955;DHT22;36966;48.064;-0.792;2023-02-11T06:54:26;16.80;41.20
50955;DHT22;36966;48.064;-0.792;2023-02-11T06:56:45;16.90;41.20
50955;DHT22;36966;48.064;-0.792;2023-02-11T06:59:05;16.90;41.20
50955;DHT22;36966;48.064;-0.792;2023-02-11T07:01:26;16.90;41.10
50955;DHT22;36966;48.064;-0.792;2023-02-11T07:03:45;16.80;41.10
50955;DHT22;36966;48.064;-0.792;2023-02-11T07:06:06;16.80;41.00
50955;DHT22;36966;48.064;-0.792;2023-02-11T07:08:26;16.80;41.10
50955;DHT22;36966;48.064;-0.792;2023-02-11T07:10:45;16.80;41.00
50955;DHT22;36966;48.064;-0.792;2023-02-11T07:13:04;16.80;40.90
50955;DHT22;36966;48.064;-0.792;2023-02-11T07:15:24;16.80;40.90
50955;DHT22;36966;48.064;-0.792;2023-02-11T07:17:43;16.80;40.90
50955;DHT22;36966;48.064;-0.792;2023-02-11T07:20:03;16.80;40.80
50955;DHT22;36966;48.064;-0.792;2023-02-11T07:22:22;16.80;40.80
50955;DHT22;36966;48.064;-0.792;2023-02-11T07:24:41;16.80;40.80
50955;DHT22;36966;48.064;-0.792;2023-02-11T07:27:00;16.80;40.80
50955;DHT22;36966;48.064;-0.792;2023-02-11T07:29:20;16.80;40.80
50955;DHT22;36966;48.064;-0.792;2023-02-11T07:31:39;16.80;40.80
50955;DHT22;36966;48.064;-0.792;2023-02-11T07:34:00;16.80;40.80
50955;DHT22;36966;48.064;-0.792;2023-02-11T07:36:22;16.80;40.80
50955;DHT22;36966;48.064;-0.792;2023-02-11T07:38:42;16.80;40.80
50955;DHT22;36966;48.064;-0.792;2023-02-11T07:41:03;16.80;40.70
50955;DHT22;36966;48.064;-0.792;2023-02-11T07:43:23;16.80;40.70
50955;DHT22;36966;48.064;-0.792;2023-02-11T07:45:42;16.80;40.70
50955;DHT22;36966;48.064;-0.792;2023-02-11T07:48:01;16.80;40.70
50955;DHT22;36966;48.064;-0.792;2023-02-11T07:50:20;16.80;40.70
50955;DHT22;36966;48.064;-0.792;2023-02-11T07:52:39;16.80;40.80
50955;DHT22;36966;48.064;-0.792;2023-02-11T07:54:58;16.80;40.70
50955;DHT22;36966;48.064;-0.792;2023-02-11T07:57:17;16.80;40.70
50955;DHT22;36966;48.064;-0.792;2023-02-11T07:59:36;16.80;40.50
50955;DHT22;36966;48.064;-0.792;2023-02-11T08:01:56;16.70;40.60
50955;DHT22;36966;48.064;-0.792;2023-02-11T08:04:15;16.70;40.50
50955;DHT22;36966;48.064;-0.792;2023-02-11T08:06:40;16.70;40.50
50955;DHT22;36966;48.064;-0.792;2023-02-11T08:09:04;16.80;40.50
50955;DHT22;36966;48.064;-0.792;2023-02-11T08:11:26;16.80;40.50
50955;DHT22;36966;48.064;-0.792;2023-02-11T08:13:46;16.70;40.50
50955;DHT22;36966;48.064;-0.792;2023-02-11T08:16:16;16.80;40.40
50955;DHT22;36966;48.064;-0.792;2023-02-11T08:18:36;16.70;40.50
50955;DHT22;36966;48.064;-0.792;2023-02-11T08:20:55;16.80;40.40
50955;DHT22;36966;48.064;-0.792;2023-02-11T08:23:14;16.70;40.40
50955;DHT22;36966;48.064;-0.792;2023-02-11T08:25:34;16.70;40.40
50955;DHT22;36966;48.064;-0.792;2023-02-11T08:27:53;16.80;40.40
50955;DHT22;36966;48.064;-0.792;2023-02-11T08:30:12;16.80;40.40
50955;DHT22;36966;48.064;-0.792;2023-02-11T08:32:34;16.70;40.40
50955;DHT22;36966;48.064;-0.792;2023-02-11T08:34:53;16.80;40.40
50955;DHT22;36966;48.064;-0.792;2023-02-11T08:37:12;16.80;40.30
50955;DHT22;36966;48.064;-0.792;2023-02-11T08:39:31;16.80;40.30
50955;DHT22;36966;48.064;-0.792;2023-02-11T08:41:53;16.80;40.30
50955;DHT22;36966;48.064;-0.792;2023-02-11T08:44:14;16.70;40.30
50955;DHT22;36966;48.064;-0.792;2023-02-11T08:46:33;16.80;40.30
50955;DHT22;36966;48.064;-0.792;2023-02-11T08:48:53;16.80;40.30
50955;DHT22;36966;48.064;-0.792;2023-02-11T08:51:18;16.80;40.30
50955;DHT22;36966;48.064;-0.792;2023-02-11T08:53:38;16.80;40.90
50955;DHT22;36966;48.064;-0.792;2023-02-11T08:55:57;16.80;40.80
50955;DHT22;36966;48.064;-0.792;2023-02-11T08:58:17;16.90;40.70
50955;DHT22;36966;48.064;-0.792;2023-02-11T09:00:36;16.80;40.80
50955;DHT22;36966;48.064;-0.792;2023-02-11T09:02:55;16.90;40.70
50955;DHT22;36966;48.064;-0.792;2023-02-11T09:05:14;17.00;41.10
50955;DHT22;36966;48.064;-0.792;2023-02-11T09:07:33;17.00;41.10
50955;DHT22;36966;48.064;-0.792;2023-02-11T09:09:52;17.00;41.10
50955;DHT22;36966;48.064;-0.792;2023-02-11T09:12:11;17.00;41.00
50955;DHT22;36966;48.064;-0.792;2023-02-11T09:14:31;17.00;40.90
50955;DHT22;36966;48.064;-0.792;2023-02-11T09:16:50;17.00;41.00
50955;DHT22;36966;48.064;-0.792;2023-02-11T09:19:11;17.00;41.00
50955;DHT22;36966;48.064;-0.792;2023-02-11T09:21:30;17.10;41.10
50955;DHT22;36966;48.064;-0.792;2023-02-11T09:23:49;17.10;41.10
50955;DHT22;36966;48.064;-0.792;2023-02-11T09:26:12;17.20;41.20
50955;DHT22;36966;48.064;-0.792;2023-02-11T09:28:31;17.20;41.20
50955;DHT22;36966;48.064;-0.792;2023-02-11T09:30:50;17.20;41.20
50955;DHT22;36966;48.064;-0.792;2023-02-11T09:33:09;17.20;41.10
50955;DHT22;36966;48.064;-0.792;2023-02-11T09:35:28;17.30;41.10
50955;DHT22;36966;48.064;-0.792;2023-02-11T09:37:47;17.30;41.10
50955;DHT22;36966;48.064;-0.792;2023-02-11T09:40:07;17.40;41.00
50955;DHT22;36966;48.064;-0.792;2023-02-11T09:44:52;17.50;41.00
50955;DHT22;36966;48.064;-0.792;2023-02-11T09:47:27;17.50;41.00
50955;DHT22;36966;48.064;-0.792;2023-02-11T09:50:00;17.60;41.00
50955;DHT22;36966;48.064;-0.792;2023-02-11T09:55:03;17.70;41.00
50955;DHT22;36966;48.064;-0.792;2023-02-11T09:57:32;17.70;41.00
50955;DHT22;36966;48.064;-0.792;2023-02-11T09:59:52;17.80;41.00
50955;DHT22;36966;48.064;-0.792;2023-02-11T10:02:19;17.80;41.00
50955;DHT22;36966;48.064;-0.792;2023-02-11T10:07:20;17.90;41.00
50955;DHT22;36966;48.064;-0.792;2023-02-11T10:10:03;17.90;41.00
50955;DHT22;36966;48.064;-0.792;2023-02-11T10:13:28;18.00;41.00
50955;DHT22;36966;48.064;-0.792;2023-02-11T10:22:49;18.20;41.10
50955;DHT22;36966;48.064;-0.792;2023-02-11T10:25:25;18.20;41.10
50955;DHT22;36966;48.064;-0.792;2023-02-11T10:27:45;18.20;41.10
50955;DHT22;36966;48.064;-0.792;2023-02-11T10:30:15;18.20;41.00
50955;DHT22;36966;48.064;-0.792;2023-02-11T10:32:43;18.30;41.10
50955;DHT22;36966;48.064;-0.792;2023-02-11T10:35:13;18.30;41.10
50955;DHT22;36966;48.064;-0.792;2023-02-11T10:37:33;18.40;41.00
50955;DHT22;36966;48.064;-0.792;2023-02-11T10:39:52;18.50;41.00
50955;DHT22;36966;48.064;-0.792;2023-02-11T10:42:12;18.50;41.00
50955;DHT22;36966;48.064;-0.792;2023-02-11T10:44:36;18.50;40.90
50955;DHT22;36966;48.064;-0.792;2023-02-11T10:46:59;18.60;40.90
50955;DHT22;36966;48.064;-0.792;2023-02-11T10:49:40;18.60;40.90
50955;DHT22;36966;48.064;-0.792;2023-02-11T10:52:23;18.70;40.80
50955;DHT22;36966;48.064;-0.792;2023-02-11T10:57:29;18.70;40.80
50955;DHT22;36966;48.064;-0.792;2023-02-11T11:00:05;18.70;40.80
50955;DHT22;36966;48.064;-0.792;2023-02-11T11:02:29;18.80;40.80
50955;DHT22;36966;48.064;-0.792;2023-02-11T11:04:55;18.80;40.70
50955;DHT22;36966;48.064;-0.792;2023-02-11T11:07:24;18.90;40.70
50955;DHT22;36966;48.064;-0.792;2023-02-11T11:09:57;19.00;40.70
50955;DHT22;36966;48.064;-0.792;2023-02-11T11:12:47;19.00;40.70
50955;DHT22;36966;48.064;-0.792;2023-02-11T11:17:29;19.00;40.60
50955;DHT22;36966;48.064;-0.792;2023-02-11T11:19:48;19.00;40.70
50955;DHT22;36966;48.064;-0.792;2023-02-11T11:22:19;19.10;40.70
50955;DHT22;36966;48.064;-0.792;2023-02-11T11:24:43;19.10;40.60
50955;DHT22;36966;48.064;-0.792;2023-02-11T11:27:05;19.10;40.70
50955;DHT22;36966;48.064;-0.792;2023-02-11T11:31:56;19.10;40.60
50955;DHT22;36966;48.064;-0.792;2023-02-11T11:34:34;19.10;40.60
50955;DHT22;36966;48.064;-0.792;2023-02-11T11:36:57;19.10;40.60
50955;DHT22;36966;48.064;-0.792;2023-02-11T11:39:24;19.10;40.60
50955;DHT22;36966;48.064;-0.792;2023-02-11T11:41:58;19.20;40.60
50955;DHT22;36966;48.064;-0.792;2023-02-11T11:44:26;19.20;40.60
50955;DHT22;36966;48.064;-0.792;2023-02-11T11:46:49;19.20;40.50
50955;DHT22;36966;48.064;-0.792;2023-02-11T11:52:17;19.10;40.50
50955;DHT22;36966;48.064;-0.792;2023-02-11T11:54:37;19.20;40.60
50955;DHT22;36966;48.064;-0.792;2023-02-11T11:57:09;19.10;40.50
50955;DHT22;36966;48.064;-0.792;2023-02-11T11:59:29;19.10;40.60
50955;DHT22;36966;48.064;-0.792;2023-02-11T12:06:59;19.10;40.50
50955;DHT22;36966;48.064;-0.792;2023-02-11T12:15:16;19.20;40.40
50955;DHT22;36966;48.064;-0.792;2023-02-11T12:25:53;19.20;40.20
50955;DHT22;36966;48.064;-0.792;2023-02-11T12:28:28;19.20;40.30
50955;DHT22;36966;48.064;-0.792;2023-02-11T12:31:12;19.20;40.20
50955;DHT22;36966;48.064;-0.792;2023-02-11T12:36:31;19.20;40.20
50955;DHT22;36966;48.064;-0.792;2023-02-11T12:42:35;19.20;40.00
50955;DHT22;36966;48.064;-0.792;2023-02-11T12:55:22;19.20;40.10
50955;DHT22;36966;48.064;-0.792;2023-02-11T12:57:43;19.20;40.00
50955;DHT22;36966;48.064;-0.792;2023-02-11T13:00:26;19.20;39.90
50955;DHT22;36966;48.064;-0.792;2023-02-11T13:03:10;19.20;40.00
50955;DHT22;36966;48.064;-0.792;2023-02-11T13:08:20;19.20;40.00
50955;DHT22;36966;48.064;-0.792;2023-02-11T13:10:47;19.20;39.90
50955;DHT22;36966;48.064;-0.792;2023-02-11T13:13:12;19.20;39.90
50955;DHT22;36966;48.064;-0.792;2023-02-11T13:15:36;19.20;39.90
50955;DHT22;36966;48.064;-0.792;2023-02-11T13:18:09;19.20;40.00
50955;DHT22;36966;48.064;-0.792;2023-02-11T13:20:42;19.20;39.90
50955;DHT22;36966;48.064;-0.792;2023-02-11T13:23:12;19.20;40.00
50955;DHT22;36966;48.064;-0.792;2023-02-11T13:30:38;19.20;40.00
50955;DHT22;36966;48.064;-0.792;2023-02-11T13:33:32;19.20;40.00
50955;DHT22;36966;48.064;-0.792;2023-02-11T13:38:22;19.20;39.90
50955;DHT22;36966;48.064;-0.792;2023-02-11T13:40:43;19.20;40.00
50955;DHT22;36966;48.064;-0.792;2023-02-11T13:43:05;19.20;40.00
50955;DHT22;36966;48.064;-0.792;2023-02-11T13:45:42;19.20;40.00
50955;DHT22;36966;48.064;-0.792;2023-02-11T13:48:05;19.20;39.90
50955;DHT22;36966;48.064;-0.792;2023-02-11T13:50:38;19.20;40.00
50955;DHT22;36966;48.064;-0.792;2023-02-11T13:53:00;19.20;39.80
50955;DHT22;36966;48.064;-0.792;2023-02-11T13:55:22;19.20;39.70
50955;DHT22;36966;48.064;-0.792;2023-02-11T13:57:41;19.20;39.80
50955;DHT22;36966;48.064;-0.792;2023-02-11T14:00:51;19.10;39.80
50955;DHT22;36966;48.064;-0.792;2023-02-11T14:19:39;19.00;39.90
50955;DHT22;36966;48.064;-0.792;2023-02-11T14:22:04;19.00;40.00
50955;DHT22;36966;48.064;-0.792;2023-02-11T14:34:52;18.90;40.00
50955;DHT22;36966;48.064;-0.792;2023-02-11T14:42:19;18.80;40.20
50955;DHT22;36966;48.064;-0.792;2023-02-11T14:44:40;18.80;40.20
50955;DHT22;36966;48.064;-0.792;2023-02-11T14:46:59;18.80;40.10
50955;DHT22;36966;48.064;-0.792;2023-02-11T14:49:27;18.80;40.20
50955;DHT22;36966;48.064;-0.792;2023-02-11T14:51:47;18.80;40.20
50955;DHT22;36966;48.064;-0.792;2023-02-11T14:54:14;18.80;40.10
50955;DHT22;36966;48.064;-0.792;2023-02-11T14:56:35;18.80;40.20
50955;DHT22;36966;48.064;-0.792;2023-02-11T14:58:55;18.80;40.20
50955;DHT22;36966;48.064;-0.792;2023-02-11T15:03:52;18.70;40.20
50955;DHT22;36966;48.064;-0.792;2023-02-11T15:06:24;18.70;40.20
50955;DHT22;36966;48.064;-0.792;2023-02-11T15:08:48;18.70;40.20
50955;DHT22;36966;48.064;-0.792;2023-02-11T15:11:11;18.70;40.20
50955;DHT22;36966;48.064;-0.792;2023-02-11T15:13:31;18.70;40.30
50955;DHT22;36966;48.064;-0.792;2023-02-11T15:15:55;18.70;40.30
50955;DHT22;36966;48.064;-0.792;2023-02-11T15:18:20;18.70;40.30
50955;DHT22;36966;48.064;-0.792;2023-02-11T15:20:41;18.70;40.30
50955;DHT22;36966;48.064;-0.792;2023-02-11T15:23:07;18.70;40.30
50955;DHT22;36966;48.064;-0.792;2023-02-11T15:25:27;18.70;40.30
50955;DHT22;36966;48.064;-0.792;2023-02-11T15:27:52;18.70;40.30
50955;DHT22;36966;48.064;-0.792;2023-02-11T15:32:43;18.60;40.30
50955;DHT22;36966;48.064;-0.792;2023-02-11T15:35:06;18.60;40.30
50955;DHT22;36966;48.064;-0.792;2023-02-11T15:37:28;18.60;40.30
50955;DHT22;36966;48.064;-0.792;2023-02-11T15:39:52;18.60;40.30
50955;DHT22;36966;48.064;-0.792;2023-02-11T15:44:40;18.60;40.40
50955;DHT22;36966;48.064;-0.792;2023-02-11T15:47:00;18.50;40.30
50955;DHT22;36966;48.064;-0.792;2023-02-11T15:49:20;18.60;40.30
50955;DHT22;36966;48.064;-0.792;2023-02-11T15:51:44;18.50;40.30
50955;DHT22;36966;48.064;-0.792;2023-02-11T15:54:08;18.50;40.40
50955;DHT22;36966;48.064;-0.792;2023-02-11T15:56:39;18.50;40.40
50955;DHT22;36966;48.064;-0.792;2023-02-11T15:59:15;18.50;40.30
50955;DHT22;36966;48.064;-0.792;2023-02-11T16:01:36;18.50;40.40
50955;DHT22;36966;48.064;-0.792;2023-02-11T16:03:57;18.50;40.30
50955;DHT22;36966;48.064;-0.792;2023-02-11T16:06:20;18.50;40.40
50955;DHT22;36966;48.064;-0.792;2023-02-11T16:08:39;18.50;40.30
50955;DHT22;36966;48.064;-0.792;2023-02-11T16:11:03;18.50;40.30
50955;DHT22;36966;48.064;-0.792;2023-02-11T16:13:27;18.40;40.30
50955;DHT22;36966;48.064;-0.792;2023-02-11T16:16:00;18.40;40.40
50955;DHT22;36966;48.064;-0.792;2023-02-11T16:18:38;18.40;40.40
50955;DHT22;36966;48.064;-0.792;2023-02-11T16:20:58;18.40;40.50
50955;DHT22;36966;48.064;-0.792;2023-02-11T16:24:13;18.40;40.50
50955;DHT22;36966;48.064;-0.792;2023-02-11T16:26:07;18.30;40.50
50955;DHT22;36966;48.064;-0.792;2023-02-11T16:28:28;18.30;40.50
50955;DHT22;36966;48.064;-0.792;2023-02-11T16:30:52;18.30;40.50
50955;DHT22;36966;48.064;-0.792;2023-02-11T16:33:12;18.30;40.50
50955;DHT22;36966;48.064;-0.792;2023-02-11T16:35:31;18.30;40.50
50955;DHT22;36966;48.064;-0.792;2023-02-11T16:37:50;18.30;40.50
50955;DHT22;36966;48.064;-0.792;2023-02-11T16:40:11;18.30;40.50
50955;DHT22;36966;48.064;-0.792;2023-02-11T16:42:30;18.20;40.50
50955;DHT22;36966;48.064;-0.792;2023-02-11T16:44:50;18.20;40.50
50955;DHT22;36966;48.064;-0.792;2023-02-11T16:47:22;18.20;40.50
50955;DHT22;36966;48.064;-0.792;2023-02-11T16:49:42;18.20;40.50
50955;DHT22;36966;48.064;-0.792;2023-02-11T16:52:05;18.20;40.50
50955;DHT22;36966;48.064;-0.792;2023-02-11T16:54:26;18.20;40.50
50955;DHT22;36966;48.064;-0.792;2023-02-11T16:56:46;18.20;40.50
50955;DHT22;36966;48.064;-0.792;2023-02-11T16:59:06;18.20;40.50
50955;DHT22;36966;48.064;-0.792;2023-02-11T17:01:25;18.20;40.50
50955;DHT22;36966;48.064;-0.792;2023-02-11T17:03:44;18.20;40.40
50955;DHT22;36966;48.064;-0.792;2023-02-11T17:06:10;18.20;40.50
50955;DHT22;36966;48.064;-0.792;2023-02-11T17:08:31;18.20;40.50
50955;DHT22;36966;48.064;-0.792;2023-02-11T17:10:51;18.20;40.50